sensor_id;sensor_type;location;lat;lon;timestamp;temperature;humidity
38436;DHT22;24220;48.168;14.024;2022-10-31T00:01:33;14.60;75.50
38436;DHT22;24220;48.168;14.024;2022-10-31T00:04:03;14.60;75.60
38436;DHT22;24220;48.168;14.024;2022-10-31T00:06:31;14.70;75.70
38436;DHT22;24220;48.168;14.024;2022-10-31T00:09:01;14.70;75.70
38436;DHT22;24220;48.168;14.024;2022-10-31T00:11:31;14.70;75.80
38436;DHT22;24220;48.168;14.024;2022-10-31T00:14:01;14.70;75.90
38436;DHT22;24220;48.168;14.024;2022-10-31T00:16:29;14.70;75.90
38436;DHT22;24220;48.168;14.024;2022-10-31T00:18:59;14.70;76.00
38436;DHT22;24220;48.168;14.024;2022-10-31T00:21:27;14.70;76.10
38436;DHT22;24220;48.168;14.024;2022-10-31T00:23:57;14.70;76.10
38436;DHT22;24220;48.168;14.024;2022-10-31T00:26:28;14.80;76.20
38436;DHT22;24220;48.168;14.024;2022-10-31T00:28:57;14.80;76.30
38436;DHT22;24220;48.168;14.024;2022-10-31T00:31:27;14.80;76.50
38436;DHT22;24220;48.168;14.024;2022-10-31T00:33:54;14.80;76.50
38436;DHT22;24220;48.168;14.024;2022-10-31T00:36:26;14.80;76.70
38436;DHT22;24220;48.168;14.024;2022-10-31T00:38:58;14.80;76.80
38436;DHT22;24220;48.168;14.024;2022-10-31T00:41:28;14.80;77.00
38436;DHT22;24220;48.168;14.024;2022-10-31T00:43:56;14.80;77.20
38436;DHT22;24220;48.168;14.024;2022-10-31T00:46:24;14.80;77.60
38436;DHT22;24220;48.168;14.024;2022-10-31T00:48:51;14.80;77.70
38436;DHT22;24220;48.168;14.024;2022-10-31T00:51:19;14.80;78.00
38436;DHT22;24220;48.168;14.024;2022-10-31T00:53:49;14.80;78.10
38436;DHT22;24220;48.168;14.024;2022-10-31T00:56:16;14.80;78.20
38436;DHT22;24220;48.168;14.024;2022-10-31T00:58:43;14.80;78.20
38436;DHT22;24220;48.168;14.024;2022-10-31T01:01:10;14.80;78.30
38436;DHT22;24220;48.168;14.024;2022-10-31T01:03:40;14.80;78.40
38436;DHT22;24220;48.168;14.024;2022-10-31T01:06:13;14.80;78.50
38436;DHT22;24220;48.168;14.024;2022-10-31T01:08:41;14.80;78.60
38436;DHT22;24220;48.168;14.024;2022-10-31T01:13:41;14.80;78.30
38436;DHT22;24220;48.168;14.024;2022-10-31T01:16:13;14.80;78.20
38436;DHT22;24220;48.168;14.024;2022-10-31T01:18:41;14.80;78.50
38436;DHT22;24220;48.168;14.024;2022-10-31T01:21:17;14.80;78.40
38436;DHT22;24220;48.168;14.024;2022-10-31T01:23:45;14.80;78.40
38436;DHT22;24220;48.168;14.024;2022-10-31T01:28:55;14.80;78.40
38436;DHT22;24220;48.168;14.024;2022-10-31T01:31:29;14.80;78.50
38436;DHT22;24220;48.168;14.024;2022-10-31T01:33:57;14.80;78.30
38436;DHT22;24220;48.168;14.024;2022-10-31T01:36:30;14.80;78.20
38436;DHT22;24220;48.168;14.024;2022-10-31T01:39:00;14.70;78.20
38436;DHT22;24220;48.168;14.024;2022-10-31T01:41:32;14.70;78.40
38436;DHT22;24220;48.168;14.024;2022-10-31T01:47:06;14.70;78.90
38436;DHT22;24220;48.168;14.024;2022-10-31T01:49:51;14.70;78.90
38436;DHT22;24220;48.168;14.024;2022-10-31T01:52:35;14.70;78.90
38436;DHT22;24220;48.168;14.024;2022-10-31T01:55:19;14.70;78.80
38436;DHT22;24220;48.168;14.024;2022-10-31T01:57:53;14.70;79.00
38436;DHT22;24220;48.168;14.024;2022-10-31T02:00:21;14.70;78.80
38436;DHT22;24220;48.168;14.024;2022-10-31T02:02:51;14.70;78.80
38436;DHT22;24220;48.168;14.024;2022-10-31T02:05:25;14.70;78.90
38436;DHT22;24220;48.168;14.024;2022-10-31T02:07:58;14.70;78.60
38436;DHT22;24220;48.168;14.024;2022-10-31T02:10:31;14.70;78.60
38436;DHT22;24220;48.168;14.024;2022-10-31T02:13:01;14.70;78.80
38436;DHT22;24220;48.168;14.024;2022-10-31T02:15:31;14.70;78.80
38436;DHT22;24220;48.168;14.024;2022-10-31T02:18:02;14.60;78.70
38436;DHT22;24220;48.168;14.024;2022-10-31T02:20:46;14.60;78.90
38436;DHT22;24220;48.168;14.024;2022-10-31T02:23:38;14.60;79.10
38436;DHT22;24220;48.168;14.024;2022-10-31T02:29:23;14.60;79.10
38436;DHT22;24220;48.168;14.024;2022-10-31T02:32:00;14.60;79.10
38436;DHT22;24220;48.168;14.024;2022-10-31T02:34:52;14.60;79.00
38436;DHT22;24220;48.168;14.024;2022-10-31T02:37:34;14.60;79.10
38436;DHT22;24220;48.168;14.024;2022-10-31T02:40:14;14.60;78.70
38436;DHT22;24220;48.168;14.024;2022-10-31T02:43:08;14.60;78.80
38436;DHT22;24220;48.168;14.024;2022-10-31T02:45:41;14.60;78.90
38436;DHT22;24220;48.168;14.024;2022-10-31T02:48:18;14.60;78.90
38436;DHT22;24220;48.168;14.024;2022-10-31T02:50:52;14.60;79.00
38436;DHT22;24220;48.168;14.024;2022-10-31T02:53:23;14.60;79.30
38436;DHT22;24220;48.168;14.024;2022-10-31T02:56:15;14.60;79.20
38436;DHT22;24220;48.168;14.024;2022-10-31T02:59:01;14.60;79.40
38436;DHT22;24220;48.168;14.024;2022-10-31T03:04:39;14.60;79.20
38436;DHT22;24220;48.168;14.024;2022-10-31T03:07:32;14.60;78.80
38436;DHT22;24220;48.168;14.024;2022-10-31T03:13:17;14.60;79.00
38436;DHT22;24220;48.168;14.024;2022-10-31T03:15:53;14.50;79.10
38436;DHT22;24220;48.168;14.024;2022-10-31T03:18:32;14.50;79.30
38436;DHT22;24220;48.168;14.024;2022-10-31T03:24:06;14.50;78.90
38436;DHT22;24220;48.168;14.024;2022-10-31T03:26:41;14.50;78.90
38436;DHT22;24220;48.168;14.024;2022-10-31T03:29:12;14.50;78.90
38436;DHT22;24220;48.168;14.024;2022-10-31T03:31:48;14.50;78.80
38436;DHT22;24220;48.168;14.024;2022-10-31T03:34:19;14.50;78.80
38436;DHT22;24220;48.168;14.024;2022-10-31T03:36:53;14.50;78.60
38436;DHT22;24220;48.168;14.024;2022-10-31T03:39:23;14.50;78.80
38436;DHT22;24220;48.168;14.024;2022-10-31T03:42:06;14.50;78.90
38436;DHT22;24220;48.168;14.024;2022-10-31T03:44:38;14.50;79.10
38436;DHT22;24220;48.168;14.024;2022-10-31T03:47:08;14.50;79.10
38436;DHT22;24220;48.168;14.024;2022-10-31T03:49:40;14.40;78.90
38436;DHT22;24220;48.168;14.024;2022-10-31T03:55:17;14.40;78.90
38436;DHT22;24220;48.168;14.024;2022-10-31T03:57:55;14.40;78.90
38436;DHT22;24220;48.168;14.024;2022-10-31T04:00:25;14.40;78.90
38436;DHT22;24220;48.168;14.024;2022-10-31T04:05:30;14.40;79.00
38436;DHT22;24220;48.168;14.024;2022-10-31T04:08:02;14.40;79.00
38436;DHT22;24220;48.168;14.024;2022-10-31T04:10:31;14.40;79.10
38436;DHT22;24220;48.168;14.024;2022-10-31T04:13:04;14.40;79.00
38436;DHT22;24220;48.168;14.024;2022-10-31T04:15:36;14.40;79.00
38436;DHT22;24220;48.168;14.024;2022-10-31T04:18:10;14.40;79.10
38436;DHT22;24220;48.168;14.024;2022-10-31T04:20:40;14.40;79.20
38436;DHT22;24220;48.168;14.024;2022-10-31T04:23:26;14.40;79.30
38436;DHT22;24220;48.168;14.024;2022-10-31T04:25:54;14.40;79.30
38436;DHT22;24220;48.168;14.024;2022-10-31T04:28:21;14.40;79.10
38436;DHT22;24220;48.168;14.024;2022-10-31T04:30:49;14.40;79.10
38436;DHT22;24220;48.168;14.024;2022-10-31T04:33:19;14.50;79.20
38436;DHT22;24220;48.168;14.024;2022-10-31T04:35:47;14.50;79.10
38436;DHT22;24220;48.168;14.024;2022-10-31T04:38:17;14.50;79.20
38436;DHT22;24220;48.168;14.024;2022-10-31T04:40:49;14.50;78.90
38436;DHT22;24220;48.168;14.024;2022-10-31T04:43:16;14.50;78.90
38436;DHT22;24220;48.168;14.024;2022-10-31T04:45:43;14.50;78.90
38436;DHT22;24220;48.168;14.024;2022-10-31T04:48:11;14.40;79.00
38436;DHT22;24220;48.168;14.024;2022-10-31T04:50:40;14.50;79.10
38436;DHT22;24220;48.168;14.024;2022-10-31T04:53:12;14.50;79.00
38436;DHT22;24220;48.168;14.024;2022-10-31T04:55:40;14.50;79.00
38436;DHT22;24220;48.168;14.024;2022-10-31T04:58:07;14.50;78.90
38436;DHT22;24220;48.168;14.024;2022-10-31T05:00:34;14.50;78.90
38436;DHT22;24220;48.168;14.024;2022-10-31T05:03:04;14.40;78.70
38436;DHT22;24220;48.168;14.024;2022-10-31T05:05:31;14.40;78.70
38436;DHT22;24220;48.168;14.024;2022-10-31T05:08:01;14.40;79.00
38436;DHT22;24220;48.168;14.024;2022-10-31T05:10:31;14.40;78.90
38436;DHT22;24220;48.168;14.024;2022-10-31T05:13:00;14.40;78.90
38436;DHT22;24220;48.168;14.024;2022-10-31T05:15:31;14.50;79.10
38436;DHT22;24220;48.168;14.024;2022-10-31T05:18:00;14.40;79.10
38436;DHT22;24220;48.168;14.024;2022-10-31T05:20:31;14.40;79.10
38436;DHT22;24220;48.168;14.024;2022-10-31T05:22:59;14.50;79.00
38436;DHT22;24220;48.168;14.024;2022-10-31T05:25:28;14.40;78.90
38436;DHT22;24220;48.168;14.024;2022-10-31T05:27:57;14.50;79.10
38436;DHT22;24220;48.168;14.024;2022-10-31T05:30:30;14.40;79.10
38436;DHT22;24220;48.168;14.024;2022-10-31T05:33:00;14.50;78.90
38436;DHT22;24220;48.168;14.024;2022-10-31T05:35:30;14.40;78.90
38436;DHT22;24220;48.168;14.024;2022-10-31T05:37:59;14.40;79.00
38436;DHT22;24220;48.168;14.024;2022-10-31T05:40:29;14.40;79.00
38436;DHT22;24220;48.168;14.024;2022-10-31T05:42:57;14.40;79.00
38436;DHT22;24220;48.168;14.024;2022-10-31T05:45:27;14.40;79.00
38436;DHT22;24220;48.168;14.024;2022-10-31T05:47:59;14.40;78.90
38436;DHT22;24220;48.168;14.024;2022-10-31T05:50:31;14.40;79.00
38436;DHT22;24220;48.168;14.024;2022-10-31T05:53:09;14.40;78.80
38436;DHT22;24220;48.168;14.024;2022-10-31T05:55:36;14.40;78.80
38436;DHT22;24220;48.168;14.024;2022-10-31T05:58:06;14.40;78.70
38436;DHT22;24220;48.168;14.024;2022-10-31T06:00:34;14.40;78.60
38436;DHT22;24220;48.168;14.024;2022-10-31T06:03:04;14.30;78.60
38436;DHT22;24220;48.168;14.024;2022-10-31T06:05:32;14.30;78.70
38436;DHT22;24220;48.168;14.024;2022-10-31T06:08:00;14.30;78.90
38436;DHT22;24220;48.168;14.024;2022-10-31T06:10:28;14.30;78.90
38436;DHT22;24220;48.168;14.024;2022-10-31T06:12:58;14.30;78.80
38436;DHT22;24220;48.168;14.024;2022-10-31T06:15:27;14.30;78.80
38436;DHT22;24220;48.168;14.024;2022-10-31T06:18:05;14.30;78.90
38436;DHT22;24220;48.168;14.024;2022-10-31T06:20:33;14.30;79.00
38436;DHT22;24220;48.168;14.024;2022-10-31T06:23:01;14.30;79.60
38436;DHT22;24220;48.168;14.024;2022-10-31T06:25:32;14.30;78.90
38436;DHT22;24220;48.168;14.024;2022-10-31T06:28:00;14.30;79.00
38436;DHT22;24220;48.168;14.024;2022-10-31T06:30:30;14.30;79.00
38436;DHT22;24220;48.168;14.024;2022-10-31T06:33:04;14.30;78.90
38436;DHT22;24220;48.168;14.024;2022-10-31T06:35:32;14.30;78.80
38436;DHT22;24220;48.168;14.024;2022-10-31T06:38:05;14.30;78.80
38436;DHT22;24220;48.168;14.024;2022-10-31T06:40:33;14.30;78.80
38436;DHT22;24220;48.168;14.024;2022-10-31T06:43:03;14.30;78.90
38436;DHT22;24220;48.168;14.024;2022-10-31T06:45:31;14.30;79.00
38436;DHT22;24220;48.168;14.024;2022-10-31T06:47:58;14.30;78.70
38436;DHT22;24220;48.168;14.024;2022-10-31T06:50:43;14.30;78.70
38436;DHT22;24220;48.168;14.024;2022-10-31T06:53:13;14.40;78.70
38436;DHT22;24220;48.168;14.024;2022-10-31T06:55:47;14.40;78.60
38436;DHT22;24220;48.168;14.024;2022-10-31T06:58:14;14.40;78.70
38436;DHT22;24220;48.168;14.024;2022-10-31T07:00:41;14.40;78.70
38436;DHT22;24220;48.168;14.024;2022-10-31T07:03:15;14.40;78.90
38436;DHT22;24220;48.168;14.024;2022-10-31T07:05:43;14.40;78.90
38436;DHT22;24220;48.168;14.024;2022-10-31T07:08:14;14.40;78.80
38436;DHT22;24220;48.168;14.024;2022-10-31T07:10:43;14.40;78.90
38436;DHT22;24220;48.168;14.024;2022-10-31T07:13:13;14.40;79.00
38436;DHT22;24220;48.168;14.024;2022-10-31T07:15:44;14.40;78.60
38436;DHT22;24220;48.168;14.024;2022-10-31T07:18:12;14.40;78.60
38436;DHT22;24220;48.168;14.024;2022-10-31T07:20:42;14.40;78.50
38436;DHT22;24220;48.168;14.024;2022-10-31T07:23:10;14.40;78.70
38436;DHT22;24220;48.168;14.024;2022-10-31T07:25:41;14.40;78.70
38436;DHT22;24220;48.168;14.024;2022-10-31T07:28:09;14.40;78.90
38436;DHT22;24220;48.168;14.024;2022-10-31T07:30:37;14.40;79.00
38436;DHT22;24220;48.168;14.024;2022-10-31T07:33:05;14.40;79.20
38436;DHT22;24220;48.168;14.024;2022-10-31T07:35:35;14.40;79.30
38436;DHT22;24220;48.168;14.024;2022-10-31T07:38:12;14.40;79.10
38436;DHT22;24220;48.168;14.024;2022-10-31T07:40:41;14.40;79.10
38436;DHT22;24220;48.168;14.024;2022-10-31T07:43:11;14.40;79.10
38436;DHT22;24220;48.168;14.024;2022-10-31T07:45:41;14.40;79.10
38436;DHT22;24220;48.168;14.024;2022-10-31T07:48:11;14.40;78.80
38436;DHT22;24220;48.168;14.024;2022-10-31T07:50:41;14.40;79.70
38436;DHT22;24220;48.168;14.024;2022-10-31T07:53:10;14.40;79.10
38436;DHT22;24220;48.168;14.024;2022-10-31T07:55:40;14.50;79.20
38436;DHT22;24220;48.168;14.024;2022-10-31T07:58:15;14.40;79.20
38436;DHT22;24220;48.168;14.024;2022-10-31T08:00:46;14.50;79.00
38436;DHT22;24220;48.168;14.024;2022-10-31T08:03:17;14.50;79.00
38436;DHT22;24220;48.168;14.024;2022-10-31T08:05:55;14.40;79.00
38436;DHT22;24220;48.168;14.024;2022-10-31T08:08:23;14.50;79.20
38436;DHT22;24220;48.168;14.024;2022-10-31T08:10:51;14.40;79.40
38436;DHT22;24220;48.168;14.024;2022-10-31T08:13:21;14.40;79.40
38436;DHT22;24220;48.168;14.024;2022-10-31T08:15:52;14.50;79.50
38436;DHT22;24220;48.168;14.024;2022-10-31T08:18:20;14.50;79.60
38436;DHT22;24220;48.168;14.024;2022-10-31T08:20:50;14.50;79.70
38436;DHT22;24220;48.168;14.024;2022-10-31T08:23:20;14.60;79.70
38436;DHT22;24220;48.168;14.024;2022-10-31T08:25:47;14.60;79.40
38436;DHT22;24220;48.168;14.024;2022-10-31T08:28:15;14.60;79.30
38436;DHT22;24220;48.168;14.024;2022-10-31T08:30:42;14.60;79.40
38436;DHT22;24220;48.168;14.024;2022-10-31T08:33:14;14.50;79.00
38436;DHT22;24220;48.168;14.024;2022-10-31T08:35:43;14.50;79.30
38436;DHT22;24220;48.168;14.024;2022-10-31T08:38:11;14.50;79.50
38436;DHT22;24220;48.168;14.024;2022-10-31T08:40:39;14.50;79.60
38436;DHT22;24220;48.168;14.024;2022-10-31T08:43:10;14.50;79.60
38436;DHT22;24220;48.168;14.024;2022-10-31T08:45:38;14.50;79.70
38436;DHT22;24220;48.168;14.024;2022-10-31T08:48:15;14.50;79.80
38436;DHT22;24220;48.168;14.024;2022-10-31T08:50:45;14.50;79.50
38436;DHT22;24220;48.168;14.024;2022-10-31T08:53:19;14.60;79.80
38436;DHT22;24220;48.168;14.024;2022-10-31T08:55:49;14.60;79.80
38436;DHT22;24220;48.168;14.024;2022-10-31T08:58:20;14.60;79.80
38436;DHT22;24220;48.168;14.024;2022-10-31T09:00:52;14.70;79.80
38436;DHT22;24220;48.168;14.024;2022-10-31T09:03:22;14.70;79.60
38436;DHT22;24220;48.168;14.024;2022-10-31T09:05:53;14.70;79.40
38436;DHT22;24220;48.168;14.024;2022-10-31T09:08:21;14.70;79.30
38436;DHT22;24220;48.168;14.024;2022-10-31T09:10:48;14.80;79.30
38436;DHT22;24220;48.168;14.024;2022-10-31T09:13:19;14.80;79.20
38436;DHT22;24220;48.168;14.024;2022-10-31T09:15:56;14.80;79.10
38436;DHT22;24220;48.168;14.024;2022-10-31T09:18:23;14.80;79.00
38436;DHT22;24220;48.168;14.024;2022-10-31T09:20:51;14.80;78.90
38436;DHT22;24220;48.168;14.024;2022-10-31T09:23:21;14.80;79.10
38436;DHT22;24220;48.168;14.024;2022-10-31T09:25:54;14.80;79.10
38436;DHT22;24220;48.168;14.024;2022-10-31T09:28:23;14.90;79.20
38436;DHT22;24220;48.168;14.024;2022-10-31T09:30:53;14.90;79.30
38436;DHT22;24220;48.168;14.024;2022-10-31T09:33:23;14.90;79.40
38436;DHT22;24220;48.168;14.024;2022-10-31T09:35:50;14.90;79.50
38436;DHT22;24220;48.168;14.024;2022-10-31T09:38:20;15.00;79.30
38436;DHT22;24220;48.168;14.024;2022-10-31T09:44:52;15.00;78.70
38436;DHT22;24220;48.168;14.024;2022-10-31T09:47:09;15.00;78.90
38436;DHT22;24220;48.168;14.024;2022-10-31T09:50:06;15.00;79.20
38436;DHT22;24220;48.168;14.024;2022-10-31T09:52:48;15.10;79.20
38436;DHT22;24220;48.168;14.024;2022-10-31T09:55:30;15.10;79.10
38436;DHT22;24220;48.168;14.024;2022-10-31T09:58:01;15.10;79.10
38436;DHT22;24220;48.168;14.024;2022-10-31T10:00:29;15.20;79.10
38436;DHT22;24220;48.168;14.024;2022-10-31T10:08:40;15.20;78.20
38436;DHT22;24220;48.168;14.024;2022-10-31T10:14:43;15.30;78.50
38436;DHT22;24220;48.168;14.024;2022-10-31T10:25:40;15.40;78.60
38436;DHT22;24220;48.168;14.024;2022-10-31T10:28:32;15.40;78.50
38436;DHT22;24220;48.168;14.024;2022-10-31T10:31:15;15.40;78.70
38436;DHT22;24220;48.168;14.024;2022-10-31T10:33:54;15.40;78.80
38436;DHT22;24220;48.168;14.024;2022-10-31T10:39:16;15.50;78.80
38436;DHT22;24220;48.168;14.024;2022-10-31T10:41:48;15.50;78.60
38436;DHT22;24220;48.168;14.024;2022-10-31T10:44:46;15.50;78.40
38436;DHT22;24220;48.168;14.024;2022-10-31T10:47:41;15.60;78.40
38436;DHT22;24220;48.168;14.024;2022-10-31T10:53:00;15.60;78.80
38436;DHT22;24220;48.168;14.024;2022-10-31T10:58:23;15.60;78.90
38436;DHT22;24220;48.168;14.024;2022-10-31T11:00:53;15.70;78.90
38436;DHT22;24220;48.168;14.024;2022-10-31T11:03:22;15.70;78.90
38436;DHT22;24220;48.168;14.024;2022-10-31T11:05:56;15.70;78.90
38436;DHT22;24220;48.168;14.024;2022-10-31T11:08:27;15.70;78.70
38436;DHT22;24220;48.168;14.024;2022-10-31T11:11:03;15.70;78.70
38436;DHT22;24220;48.168;14.024;2022-10-31T11:13:31;15.80;78.70
38436;DHT22;24220;48.168;14.024;2022-10-31T11:16:06;15.80;78.50
38436;DHT22;24220;48.168;14.024;2022-10-31T11:18:42;15.80;78.50
38436;DHT22;24220;48.168;14.024;2022-10-31T11:21:31;15.90;78.60
38436;DHT22;24220;48.168;14.024;2022-10-31T11:26:43;15.90;78.60
38436;DHT22;24220;48.168;14.024;2022-10-31T11:29:15;15.80;78.50
38436;DHT22;24220;48.168;14.024;2022-10-31T11:31:44;15.90;78.60
38436;DHT22;24220;48.168;14.024;2022-10-31T11:34:35;15.90;78.60
38436;DHT22;24220;48.168;14.024;2022-10-31T11:37:16;16.00;78.50
38436;DHT22;24220;48.168;14.024;2022-10-31T11:39:54;15.90;78.40
38436;DHT22;24220;48.168;14.024;2022-10-31T11:42:35;16.00;78.30
38436;DHT22;24220;48.168;14.024;2022-10-31T11:45:35;16.00;78.40
38436;DHT22;24220;48.168;14.024;2022-10-31T11:48:16;16.00;78.60
38436;DHT22;24220;48.168;14.024;2022-10-31T11:50:49;16.00;78.60
38436;DHT22;24220;48.168;14.024;2022-10-31T11:53:20;16.00;78.60
38436;DHT22;24220;48.168;14.024;2022-10-31T11:56:03;16.10;78.50
38436;DHT22;24220;48.168;14.024;2022-10-31T11:58:36;16.10;78.50
38436;DHT22;24220;48.168;14.024;2022-10-31T12:01:08;16.10;78.50
38436;DHT22;24220;48.168;14.024;2022-10-31T12:04:07;16.10;78.90
38436;DHT22;24220;48.168;14.024;2022-10-31T12:06:37;16.10;78.50
38436;DHT22;24220;48.168;14.024;2022-10-31T12:20:10;16.20;78.60
38436;DHT22;24220;48.168;14.024;2022-10-31T12:25:50;16.30;78.60
38436;DHT22;24220;48.168;14.024;2022-10-31T12:34:18;16.30;78.50
38436;DHT22;24220;48.168;14.024;2022-10-31T12:39:38;16.40;78.20
38436;DHT22;24220;48.168;14.024;2022-10-31T12:42:28;16.30;78.10
38436;DHT22;24220;48.168;14.024;2022-10-31T12:45:58;16.40;78.10
38436;DHT22;24220;48.168;14.024;2022-10-31T12:48:24;16.40;78.20
38436;DHT22;24220;48.168;14.024;2022-10-31T12:51:02;16.40;78.00
38436;DHT22;24220;48.168;14.024;2022-10-31T13:00:00;16.40;78.30
38436;DHT22;24220;48.168;14.024;2022-10-31T13:02:35;16.50;78.30
38436;DHT22;24220;48.168;14.024;2022-10-31T13:13:06;16.50;78.20
38436;DHT22;24220;48.168;14.024;2022-10-31T13:15:45;16.50;78.10
38436;DHT22;24220;48.168;14.024;2022-10-31T13:18:31;16.50;78.20
38436;DHT22;24220;48.168;14.024;2022-10-31T13:21:07;16.50;78.20
38436;DHT22;24220;48.168;14.024;2022-10-31T13:23:36;16.50;78.00
38436;DHT22;24220;48.168;14.024;2022-10-31T13:31:56;16.50;78.00
38436;DHT22;24220;48.168;14.024;2022-10-31T13:34:31;16.50;78.10
38436;DHT22;24220;48.168;14.024;2022-10-31T13:39:55;16.50;78.10
38436;DHT22;24220;48.168;14.024;2022-10-31T13:42:57;16.50;78.20
38436;DHT22;24220;48.168;14.024;2022-10-31T13:45:33;16.50;78.20
38436;DHT22;24220;48.168;14.024;2022-10-31T13:48:17;16.50;78.20
38436;DHT22;24220;48.168;14.024;2022-10-31T13:50:59;16.50;78.20
38436;DHT22;24220;48.168;14.024;2022-10-31T13:53:56;16.50;78.40
38436;DHT22;24220;48.168;14.024;2022-10-31T13:56:30;16.50;78.50
38436;DHT22;24220;48.168;14.024;2022-10-31T14:01:48;16.50;78.60
38436;DHT22;24220;48.168;14.024;2022-10-31T14:04:22;16.50;78.70
38436;DHT22;24220;48.168;14.024;2022-10-31T14:10:05;16.50;78.70
38436;DHT22;24220;48.168;14.024;2022-10-31T14:12:41;16.50;78.80
38436;DHT22;24220;48.168;14.024;2022-10-31T14:17:56;16.50;78.80
38436;DHT22;24220;48.168;14.024;2022-10-31T14:26:35;16.50;78.90
38436;DHT22;24220;48.168;14.024;2022-10-31T14:34:39;16.40;78.80
38436;DHT22;24220;48.168;14.024;2022-10-31T14:51:00;16.40;79.00
38436;DHT22;24220;48.168;14.024;2022-10-31T14:53:31;16.30;79.00
38436;DHT22;24220;48.168;14.024;2022-10-31T14:56:09;16.30;79.00
38436;DHT22;24220;48.168;14.024;2022-10-31T14:58:43;16.30;79.00
38436;DHT22;24220;48.168;14.024;2022-10-31T15:01:28;16.30;79.00
38436;DHT22;24220;48.168;14.024;2022-10-31T15:04:19;16.30;79.00
38436;DHT22;24220;48.168;14.024;2022-10-31T15:09:34;16.20;79.10
38436;DHT22;24220;48.168;14.024;2022-10-31T15:12:25;16.20;79.80
38436;DHT22;24220;48.168;14.024;2022-10-31T15:14:56;16.10;79.20
38436;DHT22;24220;48.168;14.024;2022-10-31T15:17:24;16.20;79.30
38436;DHT22;24220;48.168;14.024;2022-10-31T15:19:55;16.10;79.30
38436;DHT22;24220;48.168;14.024;2022-10-31T15:22:26;16.10;79.50
38436;DHT22;24220;48.168;14.024;2022-10-31T15:24:55;16.10;79.60
38436;DHT22;24220;48.168;14.024;2022-10-31T15:27:26;16.10;80.20
38436;DHT22;24220;48.168;14.024;2022-10-31T15:29:59;16.00;79.50
38436;DHT22;24220;48.168;14.024;2022-10-31T15:32:29;16.00;79.60
38436;DHT22;24220;48.168;14.024;2022-10-31T15:34:59;15.90;79.60
38436;DHT22;24220;48.168;14.024;2022-10-31T15:37:26;15.90;79.60
38436;DHT22;24220;48.168;14.024;2022-10-31T15:39:54;15.90;79.80
38436;DHT22;24220;48.168;14.024;2022-10-31T15:42:35;15.90;80.00
38436;DHT22;24220;48.168;14.024;2022-10-31T15:45:18;15.90;80.30
38436;DHT22;24220;48.168;14.024;2022-10-31T15:48:02;15.80;80.50
38436;DHT22;24220;48.168;14.024;2022-10-31T15:50:46;15.90;80.60
38436;DHT22;24220;48.168;14.024;2022-10-31T15:55:56;15.80;80.60
38436;DHT22;24220;48.168;14.024;2022-10-31T15:58:25;15.90;80.80
38436;DHT22;24220;48.168;14.024;2022-10-31T16:01:01;15.80;80.70
38436;DHT22;24220;48.168;14.024;2022-10-31T16:03:31;15.80;80.80
38436;DHT22;24220;48.168;14.024;2022-10-31T16:06:04;15.80;80.70
38436;DHT22;24220;48.168;14.024;2022-10-31T16:08:37;15.80;80.80
38436;DHT22;24220;48.168;14.024;2022-10-31T16:13:41;15.70;80.80
38436;DHT22;24220;48.168;14.024;2022-10-31T16:16:14;15.80;80.90
38436;DHT22;24220;48.168;14.024;2022-10-31T16:19:11;15.80;80.90
38436;DHT22;24220;48.168;14.024;2022-10-31T16:21:42;15.70;80.80
38436;DHT22;24220;48.168;14.024;2022-10-31T16:24:28;15.70;80.80
38436;DHT22;24220;48.168;14.024;2022-10-31T16:27:15;15.70;80.80
38436;DHT22;24220;48.168;14.024;2022-10-31T16:29:46;15.70;80.70
38436;DHT22;24220;48.168;14.024;2022-10-31T16:32:50;15.60;80.60
38436;DHT22;24220;48.168;14.024;2022-10-31T16:35:53;15.60;80.70
38436;DHT22;24220;48.168;14.024;2022-10-31T16:38:13;15.60;80.80
38436;DHT22;24220;48.168;14.024;2022-10-31T16:40:41;15.60;80.90
38436;DHT22;24220;48.168;14.024;2022-10-31T16:43:11;15.60;81.00
38436;DHT22;24220;48.168;14.024;2022-10-31T16:45:52;15.60;81.10
38436;DHT22;24220;48.168;14.024;2022-10-31T16:48:21;15.60;81.10
38436;DHT22;24220;48.168;14.024;2022-10-31T16:50:52;15.50;80.90
38436;DHT22;24220;48.168;14.024;2022-10-31T16:53:22;15.50;81.00
38436;DHT22;24220;48.168;14.024;2022-10-31T17:00:54;15.50;80.80
38436;DHT22;24220;48.168;14.024;2022-10-31T17:03:22;15.50;80.80
38436;DHT22;24220;48.168;14.024;2022-10-31T17:05:49;15.50;80.60
38436;DHT22;24220;48.168;14.024;2022-10-31T17:08:19;15.50;80.70
38436;DHT22;24220;48.168;14.024;2022-10-31T17:10:52;15.40;80.60
38436;DHT22;24220;48.168;14.024;2022-10-31T17:13:22;15.40;80.80
38436;DHT22;24220;48.168;14.024;2022-10-31T17:15:52;15.40;80.90
38436;DHT22;24220;48.168;14.024;2022-10-31T17:18:23;15.40;81.00
38436;DHT22;24220;48.168;14.024;2022-10-31T17:20:58;15.40;81.00
38436;DHT22;24220;48.168;14.024;2022-10-31T17:23:30;15.40;81.10
38436;DHT22;24220;48.168;14.024;2022-10-31T17:25:59;15.40;81.10
38436;DHT22;24220;48.168;14.024;2022-10-31T17:28:29;15.40;81.80
38436;DHT22;24220;48.168;14.024;2022-10-31T17:30:57;15.40;81.20
38436;DHT22;24220;48.168;14.024;2022-10-31T17:33:30;15.40;81.20
38436;DHT22;24220;48.168;14.024;2022-10-31T17:35:57;15.40;81.20
38436;DHT22;24220;48.168;14.024;2022-10-31T17:38:25;15.40;81.20
38436;DHT22;24220;48.168;14.024;2022-10-31T17:40:53;15.40;81.40
38436;DHT22;24220;48.168;14.024;2022-10-31T17:43:20;15.30;81.20
38436;DHT22;24220;48.168;14.024;2022-10-31T17:45:53;15.40;81.40
38436;DHT22;24220;48.168;14.024;2022-10-31T17:48:20;15.40;81.40
38436;DHT22;24220;48.168;14.024;2022-10-31T17:50:51;15.30;81.40
38436;DHT22;24220;48.168;14.024;2022-10-31T17:53:18;15.40;81.50
38436;DHT22;24220;48.168;14.024;2022-10-31T17:55:48;15.40;81.50
38436;DHT22;24220;48.168;14.024;2022-10-31T17:58:16;15.40;81.60
38436;DHT22;24220;48.168;14.024;2022-10-31T18:00:43;15.40;81.40
38436;DHT22;24220;48.168;14.024;2022-10-31T18:03:19;15.40;81.40
38436;DHT22;24220;48.168;14.024;2022-10-31T18:05:58;15.40;81.40
38436;DHT22;24220;48.168;14.024;2022-10-31T18:08:26;15.40;81.40
38436;DHT22;24220;48.168;14.024;2022-10-31T18:10:55;15.40;81.30
38436;DHT22;24220;48.168;14.024;2022-10-31T18:13:22;15.40;81.30
38436;DHT22;24220;48.168;14.024;2022-10-31T18:15:50;15.50;81.30
38436;DHT22;24220;48.168;14.024;2022-10-31T18:18:23;15.50;81.30
38436;DHT22;24220;48.168;14.024;2022-10-31T18:20:50;15.50;81.20
38436;DHT22;24220;48.168;14.024;2022-10-31T18:23:17;15.50;81.10